Urb Jaime C Rodriguez, Puerto Rico
Current Conditions -  °F | °C
As of 6:53 PM on Thursday 18 Dec 2014 (Local Time) from TJNR Reporting Station
Overcast Overcast  
Wind Chill: 78°   Ceiling: 7000
Heat Index: 80°   Visibility: 10mi
Dew Point: 67°   Wind: 5mph
Humidity: 68%   Direction: 70°ENE
Pressure: 30"   Gusts: NA
Location:  18.0547°N, 65.8738°W
Report Text: TJNR 182253Z AUTO 07004KT 10SM OVC070 26/19 A3000 RMK AO2 SLP159 T02560194 $
Loading
Personal Weather Stations






























Interactive Weather Map New forecast layout! Learn more

10-Day Weather Forecast

Advertisements
Track Severe Weather on mobile